LPLALPMA

Guest
Details From LPLA - LAJES
To LPMA - Madeira
Flight Number -
Tags generated
Created
Modified
Stats Distance 634 nm / 1,175 km
Max Altitude 35,000 ft / 10,668 m
Waypoints 7
Social Downloads 0
Likes 0
Share VATSIM

Download

Looking for another format? Having issues loading an existing format? Contact us
Advertisement - Login to hide

Notes

Basic altitude profile: - Ascent Rate: 1500ft/min - Ascent Speed: 150kts - Cruise Altitude: 27000ft - Cruise Speed: 350kts - Descent Rate: 1500ft/min - Descent Speed: 150kts Options: - Use NATs: yes - Use PACOTS: yes - Use low airways: yes - Use high airways: yes

Route

LPLA VMG25 H100 VSM H104 ETROX 3500N02000W IRKID LPMA

ID Type Via Altitude Latitude Longitude Leg Dist Tot Dist Heading (true) Name
O LPLA APT - 0 ft / 0 m 38.76441˚ -27.09348˚ - 0 nm - LAJES
VMG25 FIX - 35,000 ft / 10,668 m 37.47781˚ -25.51166˚ 107 nm 107 nm 135° / 136° -
VSM VOR H100 (AWY-HI) 27,500 ft / 8,382 m 36.96278˚ -25.16639˚ 35 nm 142 nm 152° / 152° SANTA MARIA VOR-DME
ETROX FIX H104 (AWY-HI) 27,500 ft / 8,382 m 36.40250˚ -24.02444˚ 64 nm 207 nm 121° / 122° -
3500N02000W LATLON - 35,000 ft / 10,668 m 35.00000˚ -20.00000˚ 213 nm 420 nm 112° / 114° -
IRKID FIX - 21,000 ft / 6,401 m 33.92500˚ -18.06917˚ 115 nm 535 nm 123° / 125° -
O LPMA APT - 0 ft / 0 m 32.69770˚ -16.77445˚ 98 nm 634 nm 138° / 139° Madeira

Altitude Profile

Advertisement - Login to hide

Weather


0- 5 10 15 20 25 30 35+ Temperature / ° C

Clouds and Precipitation
Forecast for 2017-12-13 00:00 UTC. Updated an hour ago

Ground ~20,000 ft ~40,000 ft Winds

LPLA

Details ICAO LPLA (TER)
Name LAJES
Region Portugal
Timezone Atlantic/Azores (UTC-1.0)
Stats Elevation 180 ft / 55 m (AMSL)
Location 38.764410° -27.093482°
Runways 1
Magnetic Variation 8.935° W

METAR

LPLA 122000Z /////KT 9999 FEW016 SCT020 BKN030 18/16 Q1032

Decode

TAF

TAF LPLA 121702Z 1218/1318 VRB05KT 9999 FEW014 BKN030= TAF LPPD 121700Z 1218/1318 VRB05KT 9999 FEW015 BKN030 TEMPO 1221/1309 BKN008 BECMG 1312/1315 33007KT

Decode

Departure Runways

ID Width Length Bearing (true) Bearing (mag) Surface Threshold Offset Overrun Length
15 197 ft / 60 m 10,869 ft / 3,313 m 140.81° 149.75° Asphalt 0 ft / 0 m 991 ft / 302 m
33 197 ft / 60 m 10,869 ft / 3,313 m 320.82° 329.76° Asphalt 0 ft / 0 m 1,040 ft / 317 m

LPMA

Details ICAO LPMA (FNC)
Name Madeira
Region Portugal
Timezone Atlantic/Madeira (UTC+0.0)
Stats Elevation 192 ft / 59 m (AMSL)
Location 32.697704° -16.774449°
Runways 1
Magnetic Variation 4.982° W

METAR

LPMA 122000Z 02016KT 9999 SCT016 17/09 Q1026

Decode

TAF

TAF LPMA 121700Z 1218/1318 01015KT 9999 SCT015 TEMPO 1218/1318 01018G30KT 6000 -RA BKN012 FEW018TCU PROB30 TEMPO 1218/1318 01025G35KT

Decode

Destination Runways

ID Width Length Bearing (true) Bearing (mag) Surface Threshold Offset Overrun Length
05 141 ft / 43 m 8,683 ft / 2,647 m 42.98° 47.96° Asphalt 472 ft / 144 m 0 ft / 0 m
23 141 ft / 43 m 8,683 ft / 2,647 m 222.99° 227.97° Asphalt 466 ft / 142 m 0 ft / 0 m

Popular Alternatives